createdAt,value
2022-08-05T00:04:57.102Z,100630.00
2022-08-05T00:09:59.295Z,100625.60
2022-08-05T00:15:54.214Z,100615.60
2022-08-05T00:20:23.438Z,100609.60
2022-08-05T00:25:45.567Z,100605.00
2022-08-05T00:30:52.075Z,100595.20
2022-08-05T00:36:15.989Z,100589.60
2022-08-05T00:41:51.546Z,100593.60
2022-08-05T00:47:03.893Z,100590.60
2022-08-05T00:52:07.870Z,100587.00
2022-08-05T00:57:09.745Z,100584.80
2022-08-05T01:02:11.945Z,100582.00
2022-08-05T01:07:14.022Z,100579.00
2022-08-05T01:12:22.357Z,100580.60
2022-08-05T01:17:53.796Z,100572.00
2022-08-05T01:23:14.386Z,100575.60
2022-08-05T01:29:04.218Z,100576.60
2022-08-05T01:34:29.981Z,100572.80
2022-08-05T01:39:46.453Z,100568.40
2022-08-05T01:44:53.818Z,100557.80
2022-08-05T01:50:02.791Z,100556.60
2022-08-05T01:55:12.607Z,100554.40
2022-08-05T02:00:15.627Z,100549.00
2022-08-05T02:05:23.478Z,100546.00
2022-08-05T02:10:32.775Z,100550.40
2022-08-05T02:15:43.558Z,100546.20
2022-08-05T02:20:53.926Z,100543.80
2022-08-05T02:26:04.740Z,100540.80
2022-08-05T02:31:28.321Z,100538.60
2022-08-05T02:36:34.989Z,100537.80
2022-08-05T02:41:57.626Z,100535.40
2022-08-05T02:47:09.414Z,100537.60
2022-08-05T02:52:29.290Z,100530.40
2022-08-05T02:58:12.113Z,100526.80
2022-08-05T03:02:58.585Z,100522.00
2022-08-05T03:08:08.766Z,100518.20
2022-08-05T03:13:17.052Z,100514.40
2022-08-05T03:18:19.034Z,100516.20
2022-08-05T03:23:34.301Z,100516.60
2022-08-05T03:28:37.099Z,100517.00
2022-08-05T03:33:51.183Z,100519.40
2022-08-05T03:38:55.219Z,100518.20
2022-08-05T03:44:08.633Z,100523.00
2022-08-05T03:49:14.977Z,100524.00
2022-08-05T03:55:07.228Z,100526.60
2022-08-05T03:59:57.989Z,100523.80
2022-08-05T04:05:02.861Z,100528.00
2022-08-05T04:10:06.253Z,100522.00
2022-08-05T04:15:15.437Z,100522.20
2022-08-05T04:20:22.133Z,100526.40
2022-08-05T04:25:56.592Z,100522.40
2022-08-05T04:30:48.614Z,100519.80
2022-08-05T04:36:16.439Z,100522.80
2022-08-05T04:41:13.539Z,100522.60
2022-08-05T04:46:28.430Z,100518.80
2022-08-05T04:51:31.616Z,100517.00
2022-08-05T04:56:37.007Z,100511.80
2022-08-05T05:02:08.159Z,100510.00
2022-08-05T05:07:01.326Z,100512.60
2022-08-05T05:12:06.318Z,100509.40
2022-08-05T05:17:09.543Z,100510.80
2022-08-05T05:22:23.797Z,100521.00
2022-08-05T05:27:44.286Z,100514.80
2022-08-05T05:32:47.153Z,100512.00
2022-08-05T05:38:00.021Z,100517.80
2022-08-05T05:43:04.337Z,100516.40
2022-08-05T05:48:10.603Z,100517.00
2022-08-05T05:53:22.147Z,100512.20
2022-08-05T05:58:30.286Z,100510.00
2022-08-05T06:03:54.407Z,100511.80
2022-08-05T06:08:55.918Z,100512.80
2022-08-05T06:13:58.182Z,100513.60
2022-08-05T06:19:11.351Z,100505.80
2022-08-05T06:24:15.864Z,100500.20
2022-08-05T06:29:25.525Z,100505.40
2022-08-05T06:34:45.036Z,100500.20
2022-08-05T06:39:50.692Z,100498.80
2022-08-05T06:44:53.894Z,100497.20
2022-08-05T06:50:01.444Z,100497.60
2022-08-05T06:55:07.234Z,100489.60
2022-08-05T07:00:11.590Z,100492.00
2022-08-05T07:05:18.943Z,100491.20
2022-08-05T07:10:30.478Z,100488.80
2022-08-05T07:16:01.734Z,100488.40
2022-08-05T07:21:08.385Z,100488.40
2022-08-05T07:26:13.299Z,100489.20
2022-08-05T07:31:18.675Z,100486.40
2022-08-05T07:36:42.726Z,100484.40
2022-08-05T07:42:14.719Z,100483.40
2022-08-05T07:47:10.166Z,100475.80
2022-08-05T07:52:17.283Z,100475.60
2022-08-05T07:57:41.529Z,100474.80
2022-08-05T08:03:14.850Z,100474.80
2022-08-05T08:08:12.353Z,100475.40
2022-08-05T08:13:22.100Z,100476.20
2022-08-05T08:18:32.620Z,100473.40
2022-08-05T08:24:01.801Z,100468.60
2022-08-05T08:29:29.319Z,100469.60
2022-08-05T08:34:30.602Z,100461.20
2022-08-05T08:39:37.549Z,100463.20
2022-08-05T08:45:22.446Z,100455.20
2022-08-05T08:50:30.437Z,100460.60
2022-08-05T08:56:04.014Z,100448.80
2022-08-05T09:00:58.849Z,100446.60
2022-08-05T09:06:07.694Z,100441.80
2022-08-05T09:11:13.849Z,100437.80
2022-08-05T09:16:17.822Z,100436.00
2022-08-05T09:22:24.960Z,100434.20
2022-08-05T09:26:56.945Z,100438.00
2022-08-05T09:32:41.353Z,100433.40
2022-08-05T09:38:17.233Z,100423.80
2022-08-05T09:42:53.935Z,100427.80
2022-08-05T09:47:57.537Z,100432.60
2022-08-05T09:53:01.209Z,100417.60
2022-08-05T09:58:16.214Z,100409.60
2022-08-05T10:03:21.256Z,100414.40
2022-08-05T10:08:36.156Z,100415.60
2022-08-05T10:13:45.697Z,100400.00
2022-08-05T10:18:51.777Z,100398.00
2022-08-05T10:24:00.386Z,100393.20
2022-08-05T10:29:04.313Z,100396.00
2022-08-05T10:34:10.138Z,100391.00
2022-08-05T10:39:58.913Z,100385.40
2022-08-05T10:44:57.623Z,100374.80
2022-08-05T10:50:32.175Z,100375.00
2022-08-05T10:55:26.469Z,100368.40
2022-08-05T11:00:31.087Z,100368.00
2022-08-05T11:05:35.892Z,100365.20
2022-08-05T11:11:00.059Z,100357.00
2022-08-05T11:16:33.937Z,100354.60
2022-08-05T11:21:49.554Z,100354.60
2022-08-05T11:27:51.036Z,100347.20
2022-08-05T11:33:43.789Z,100340.60
2022-08-05T11:38:51.927Z,100339.60
2022-08-05T11:44:07.064Z,100325.40
2022-08-05T11:49:14.796Z,100321.80
2022-08-05T11:54:33.795Z,100317.00
2022-08-05T11:59:41.280Z,100320.20
2022-08-05T12:04:59.643Z,100322.80
2022-08-05T12:10:09.544Z,100325.00
2022-08-05T12:15:38.387Z,100319.60
2022-08-05T12:20:43.381Z,100317.40
2022-08-05T12:25:56.429Z,100313.40
2022-08-05T12:31:02.428Z,100308.80
2022-08-05T12:36:09.266Z,100300.00
2022-08-05T12:41:14.909Z,100294.60
2022-08-05T12:46:34.033Z,100297.40
2022-08-05T12:52:12.790Z,100292.80
2022-08-05T12:57:23.219Z,100305.00
2022-08-05T13:02:30.449Z,100294.00
2022-08-05T13:07:59.230Z,100300.20
2022-08-05T13:12:58.448Z,100292.20
2022-08-05T13:18:02.622Z,100288.00
2022-08-05T13:23:07.351Z,100285.60
2022-08-05T13:28:10.975Z,100278.40
2022-08-05T13:34:22.197Z,100268.80
2022-08-05T13:38:42.451Z,100270.20
2022-08-05T13:43:54.502Z,100269.80
2022-08-05T13:49:00.673Z,100252.60
2022-08-05T13:54:12.310Z,100243.00
2022-08-05T13:59:20.254Z,100239.20
2022-08-05T14:04:43.382Z,100239.80
2022-08-05T14:09:54.289Z,100235.60
2022-08-05T14:14:58.092Z,100236.60
2022-08-05T14:20:06.759Z,100232.20
2022-08-05T14:25:19.242Z,100235.60
2022-08-05T14:30:27.889Z,100227.40
2022-08-05T14:35:50.317Z,100231.20
2022-08-05T14:40:55.393Z,100228.40
2022-08-05T14:45:59.739Z,100225.00
2022-08-05T14:51:03.151Z,100228.00
2022-08-05T14:56:06.870Z,100221.60
2022-08-05T15:01:10.849Z,100217.60
2022-08-05T15:06:19.938Z,100227.00
2022-08-05T15:11:53.163Z,100223.00
2022-08-05T15:16:56.767Z,100225.80
2022-08-05T15:22:01.496Z,100222.00
2022-08-05T15:27:04.859Z,100219.00
2022-08-05T15:32:12.551Z,100213.20
2022-08-05T15:37:19.354Z,100211.00
2022-08-05T15:42:55.699Z,100207.60
2022-08-05T15:48:04.378Z,100216.00
2022-08-05T15:53:09.236Z,100206.20
2022-08-05T15:58:16.708Z,100212.40
2022-08-05T16:03:20.325Z,100214.20
2022-08-05T16:08:24.250Z,100216.60
2022-08-05T16:13:35.021Z,100223.00
2022-08-05T16:18:52.747Z,100218.80
2022-08-05T16:24:00.163Z,100223.80
2022-08-05T16:29:06.271Z,100209.60
2022-08-05T16:34:11.635Z,100211.80
2022-08-05T16:39:15.815Z,100204.20
2022-08-05T16:44:19.073Z,100202.80
2022-08-05T16:49:26.785Z,100195.80
2022-08-05T16:54:33.034Z,100192.00
2022-08-05T17:00:00.322Z,100193.80
2022-08-05T17:05:06.556Z,100186.60
2022-08-05T17:10:10.601Z,100181.20
2022-08-05T17:15:15.618Z,100185.60
2022-08-05T17:20:22.900Z,100180.80
2022-08-05T17:25:33.615Z,100185.20
2022-08-05T17:30:42.413Z,100182.00
2022-08-05T17:36:08.809Z,100181.60
2022-08-05T17:42:18.235Z,100180.20
2022-08-05T17:46:37.515Z,100179.20
2022-08-05T17:51:41.747Z,100179.80
2022-08-05T17:56:51.374Z,100186.20
2022-08-05T18:01:54.614Z,100178.60
2022-08-05T18:07:00.402Z,100189.20
2022-08-05T18:12:05.700Z,100186.40
2022-08-05T18:17:59.067Z,100195.00
2022-08-05T18:22:36.201Z,100198.00
2022-08-05T18:27:52.343Z,100201.20
2022-08-05T18:33:00.313Z,100206.20
2022-08-05T18:38:05.003Z,100209.80
2022-08-05T18:43:09.154Z,100205.60
2022-08-05T18:48:30.570Z,100211.60
2022-08-05T18:53:45.681Z,100208.40
2022-08-05T18:58:50.847Z,100209.80
2022-08-05T19:03:56.946Z,100203.20
2022-08-05T19:09:00.091Z,100203.00
2022-08-05T19:14:15.258Z,100199.40
2022-08-05T19:19:27.938Z,100195.80
2022-08-05T19:24:34.648Z,100195.60
2022-08-05T19:29:39.539Z,100190.60
2022-08-05T19:34:54.366Z,100196.20
2022-08-05T19:40:00.031Z,100189.60
2022-08-05T19:45:05.617Z,100197.80
2022-08-05T19:50:12.019Z,100189.80
2022-08-05T19:56:14.386Z,100188.40
2022-08-05T20:00:38.963Z,100203.60
2022-08-05T20:05:51.246Z,100193.20
2022-08-05T20:10:55.618Z,100189.80
2022-08-05T20:15:59.744Z,100194.60
2022-08-05T20:21:05.272Z,100187.00
2022-08-05T20:26:15.299Z,100183.80
2022-08-05T20:31:28.786Z,100187.00
2022-08-05T20:36:45.266Z,100195.20
2022-08-05T20:41:48.554Z,100206.80
2022-08-05T20:46:51.865Z,100212.60
2022-08-05T20:51:57.357Z,100212.60
2022-08-05T20:57:05.334Z,100209.60
2022-08-05T21:02:12.852Z,100210.80
2022-08-05T21:07:21.792Z,100208.00
2022-08-05T21:12:26.198Z,100211.80
2022-08-05T21:17:30.152Z,100209.60
2022-08-05T21:22:33.567Z,100209.60
2022-08-05T21:27:38.992Z,100211.80
2022-08-05T21:32:42.542Z,100213.60
2022-08-05T21:37:47.141Z,100215.80
2022-08-05T21:42:53.965Z,100217.80
2022-08-05T21:47:57.970Z,100234.00
2022-08-05T21:53:04.549Z,100268.80
2022-08-05T21:58:24.831Z,100261.20
2022-08-05T22:03:48.417Z,100263.80
2022-08-05T22:08:54.977Z,100278.60
2022-08-05T22:14:33.775Z,100276.60
2022-08-05T22:20:02.074Z,100271.40
2022-08-05T22:25:03.893Z,100269.20
2022-08-05T22:30:15.343Z,100280.80
2022-08-05T22:35:20.558Z,100301.20
2022-08-05T22:40:28.187Z,100307.60
2022-08-05T22:45:33.951Z,100310.60
2022-08-05T22:50:40.409Z,100313.40
2022-08-05T22:55:56.673Z,100295.80
